sensor_id;sensor_type;location;lat;lon;timestamp;P1;durP1;ratioP1;P2;durP2;ratioP2
11092;SDS011;5600;50.864;6.102;2023-04-25T00:02:00;77.33;;;6.30;;
11092;SDS011;5600;50.864;6.102;2023-04-25T00:05:01;88.73;;;7.00;;
11092;SDS011;5600;50.864;6.102;2023-04-25T00:08:04;66.90;;;6.30;;
11092;SDS011;5600;50.864;6.102;2023-04-25T00:11:05;82.77;;;7.33;;
11092;SDS011;5600;50.864;6.102;2023-04-25T00:14:06;88.37;;;6.77;;
11092;SDS011;5600;50.864;6.102;2023-04-25T00:17:06;76.53;;;6.93;;
11092;SDS011;5600;50.864;6.102;2023-04-25T00:20:07;85.80;;;7.03;;
11092;SDS011;5600;50.864;6.102;2023-04-25T00:23:09;91.90;;;7.47;;
11092;SDS011;5600;50.864;6.102;2023-04-25T00:26:10;67.53;;;6.30;;
11092;SDS011;5600;50.864;6.102;2023-04-25T00:29:11;66.37;;;5.87;;
11092;SDS011;5600;50.864;6.102;2023-04-25T00:32:12;96.07;;;7.77;;
11092;SDS011;5600;50.864;6.102;2023-04-25T00:35:13;88.13;;;7.27;;
11092;SDS011;5600;50.864;6.102;2023-04-25T00:38:13;75.37;;;6.97;;
11092;SDS011;5600;50.864;6.102;2023-04-25T00:41:14;67.17;;;6.27;;
11092;SDS011;5600;50.864;6.102;2023-04-25T00:44:15;65.43;;;6.17;;
11092;SDS011;5600;50.864;6.102;2023-04-25T00:47:17;87.63;;;7.53;;
11092;SDS011;5600;50.864;6.102;2023-04-25T00:50:17;83.93;;;6.73;;
11092;SDS011;5600;50.864;6.102;2023-04-25T00:53:18;75.93;;;6.60;;
11092;SDS011;5600;50.864;6.102;2023-04-25T00:56:19;80.37;;;6.80;;
11092;SDS011;5600;50.864;6.102;2023-04-25T00:59:21;85.33;;;7.03;;
11092;SDS011;5600;50.864;6.102;2023-04-25T01:02:22;73.90;;;6.37;;
11092;SDS011;5600;50.864;6.102;2023-04-25T01:05:23;85.03;;;7.23;;
11092;SDS011;5600;50.864;6.102;2023-04-25T01:08:24;57.50;;;6.07;;
11092;SDS011;5600;50.864;6.102;2023-04-25T01:11:27;75.33;;;6.43;;
11092;SDS011;5600;50.864;6.102;2023-04-25T01:14:28;59.23;;;6.23;;
11092;SDS011;5600;50.864;6.102;2023-04-25T01:17:29;56.83;;;6.00;;
11092;SDS011;5600;50.864;6.102;2023-04-25T01:20:32;66.80;;;6.77;;
11092;SDS011;5600;50.864;6.102;2023-04-25T01:23:33;74.70;;;7.13;;
11092;SDS011;5600;50.864;6.102;2023-04-25T01:26:34;72.37;;;6.80;;
11092;SDS011;5600;50.864;6.102;2023-04-25T01:29:36;71.20;;;6.80;;
11092;SDS011;5600;50.864;6.102;2023-04-25T01:32:37;82.33;;;7.27;;
11092;SDS011;5600;50.864;6.102;2023-04-25T01:35:40;78.60;;;6.83;;
11092;SDS011;5600;50.864;6.102;2023-04-25T01:38:41;84.23;;;7.13;;
11092;SDS011;5600;50.864;6.102;2023-04-25T01:41:44;49.00;;;5.37;;
11092;SDS011;5600;50.864;6.102;2023-04-25T01:44:48;91.37;;;7.73;;
11092;SDS011;5600;50.864;6.102;2023-04-25T01:47:48;119.10;;;8.23;;
11092;SDS011;5600;50.864;6.102;2023-04-25T01:50:50;93.47;;;7.60;;
11092;SDS011;5600;50.864;6.102;2023-04-25T01:53:51;78.63;;;7.17;;
11092;SDS011;5600;50.864;6.102;2023-04-25T01:56:52;86.00;;;7.33;;
11092;SDS011;5600;50.864;6.102;2023-04-25T01:59:57;86.97;;;7.10;;
11092;SDS011;5600;50.864;6.102;2023-04-25T02:03:12;81.13;;;6.90;;
11092;SDS011;5600;50.864;6.102;2023-04-25T02:06:13;80.73;;;6.83;;
11092;SDS011;5600;50.864;6.102;2023-04-25T02:09:17;70.03;;;6.37;;
11092;SDS011;5600;50.864;6.102;2023-04-25T02:12:24;70.47;;;6.50;;
11092;SDS011;5600;50.864;6.102;2023-04-25T02:15:28;86.63;;;7.23;;
11092;SDS011;5600;50.864;6.102;2023-04-25T02:18:33;63.67;;;6.40;;
11092;SDS011;5600;50.864;6.102;2023-04-25T02:21:33;55.40;;;6.20;;
11092;SDS011;5600;50.864;6.102;2023-04-25T02:24:36;67.03;;;6.67;;
11092;SDS011;5600;50.864;6.102;2023-04-25T02:27:37;69.43;;;6.50;;
11092;SDS011;5600;50.864;6.102;2023-04-25T02:30:38;80.33;;;6.97;;
11092;SDS011;5600;50.864;6.102;2023-04-25T02:33:39;73.50;;;6.93;;
11092;SDS011;5600;50.864;6.102;2023-04-25T02:36:40;80.83;;;6.73;;
11092;SDS011;5600;50.864;6.102;2023-04-25T02:39:41;67.07;;;6.53;;
11092;SDS011;5600;50.864;6.102;2023-04-25T02:42:42;88.50;;;7.17;;
11092;SDS011;5600;50.864;6.102;2023-04-25T02:45:42;74.77;;;6.90;;
11092;SDS011;5600;50.864;6.102;2023-04-25T02:48:43;81.13;;;7.37;;
11092;SDS011;5600;50.864;6.102;2023-04-25T02:51:44;87.17;;;7.53;;
11092;SDS011;5600;50.864;6.102;2023-04-25T02:54:46;65.30;;;5.90;;
11092;SDS011;5600;50.864;6.102;2023-04-25T02:57:47;88.23;;;7.37;;
11092;SDS011;5600;50.864;6.102;2023-04-25T03:00:54;99.40;;;8.10;;
11092;SDS011;5600;50.864;6.102;2023-04-25T03:03:55;105.43;;;8.03;;
11092;SDS011;5600;50.864;6.102;2023-04-25T03:06:56;82.70;;;7.33;;
11092;SDS011;5600;50.864;6.102;2023-04-25T03:09:57;98.07;;;8.20;;
11092;SDS011;5600;50.864;6.102;2023-04-25T03:12:58;97.43;;;7.90;;
11092;SDS011;5600;50.864;6.102;2023-04-25T03:15:59;110.43;;;7.97;;
11092;SDS011;5600;50.864;6.102;2023-04-25T03:19:00;101.73;;;8.83;;
11092;SDS011;5600;50.864;6.102;2023-04-25T03:22:01;97.57;;;7.70;;
11092;SDS011;5600;50.864;6.102;2023-04-25T03:25:03;82.43;;;6.87;;
11092;SDS011;5600;50.864;6.102;2023-04-25T03:28:05;57.83;;;6.07;;
11092;SDS011;5600;50.864;6.102;2023-04-25T03:31:06;81.27;;;6.63;;
11092;SDS011;5600;50.864;6.102;2023-04-25T03:34:07;73.20;;;6.20;;
11092;SDS011;5600;50.864;6.102;2023-04-25T03:37:08;79.23;;;6.93;;
11092;SDS011;5600;50.864;6.102;2023-04-25T03:40:11;82.47;;;6.80;;
11092;SDS011;5600;50.864;6.102;2023-04-25T03:43:40;69.40;;;6.23;;
11092;SDS011;5600;50.864;6.102;2023-04-25T03:46:44;54.03;;;5.73;;
11092;SDS011;5600;50.864;6.102;2023-04-25T03:49:46;56.80;;;5.80;;
11092;SDS011;5600;50.864;6.102;2023-04-25T03:52:49;90.57;;;7.17;;
11092;SDS011;5600;50.864;6.102;2023-04-25T03:55:50;102.10;;;8.20;;
11092;SDS011;5600;50.864;6.102;2023-04-25T03:58:51;93.63;;;7.93;;
11092;SDS011;5600;50.864;6.102;2023-04-25T04:01:54;84.43;;;7.73;;
11092;SDS011;5600;50.864;6.102;2023-04-25T04:04:56;94.90;;;7.10;;
11092;SDS011;5600;50.864;6.102;2023-04-25T04:07:57;76.63;;;6.60;;
11092;SDS011;5600;50.864;6.102;2023-04-25T04:10:58;100.23;;;7.70;;
11092;SDS011;5600;50.864;6.102;2023-04-25T04:14:00;69.17;;;5.97;;
11092;SDS011;5600;50.864;6.102;2023-04-25T04:17:01;81.63;;;6.57;;
11092;SDS011;5600;50.864;6.102;2023-04-25T04:20:03;75.17;;;6.70;;
11092;SDS011;5600;50.864;6.102;2023-04-25T04:23:05;66.83;;;6.37;;
11092;SDS011;5600;50.864;6.102;2023-04-25T04:26:06;63.00;;;6.03;;
11092;SDS011;5600;50.864;6.102;2023-04-25T04:29:25;92.00;;;7.40;;
11092;SDS011;5600;50.864;6.102;2023-04-25T04:32:36;76.20;;;6.87;;
11092;SDS011;5600;50.864;6.102;2023-04-25T04:35:38;69.57;;;6.03;;
11092;SDS011;5600;50.864;6.102;2023-04-25T04:38:40;72.07;;;6.57;;
11092;SDS011;5600;50.864;6.102;2023-04-25T04:41:45;68.20;;;6.17;;
11092;SDS011;5600;50.864;6.102;2023-04-25T04:45:01;83.93;;;7.30;;
11092;SDS011;5600;50.864;6.102;2023-04-25T04:48:21;88.13;;;7.50;;
11092;SDS011;5600;50.864;6.102;2023-04-25T04:51:48;85.63;;;7.23;;
11092;SDS011;5600;50.864;6.102;2023-04-25T04:55:28;59.90;;;6.20;;
11092;SDS011;5600;50.864;6.102;2023-04-25T04:58:53;87.53;;;7.40;;
11092;SDS011;5600;50.864;6.102;2023-04-25T05:02:12;72.40;;;6.83;;
11092;SDS011;5600;50.864;6.102;2023-04-25T05:05:24;103.03;;;8.97;;
11092;SDS011;5600;50.864;6.102;2023-04-25T05:08:43;70.30;;;6.53;;
11092;SDS011;5600;50.864;6.102;2023-04-25T05:12:03;92.90;;;7.90;;
11092;SDS011;5600;50.864;6.102;2023-04-25T05:15:21;81.07;;;6.90;;
11092;SDS011;5600;50.864;6.102;2023-04-25T05:18:31;68.03;;;6.53;;
11092;SDS011;5600;50.864;6.102;2023-04-25T05:21:43;64.57;;;6.07;;
11092;SDS011;5600;50.864;6.102;2023-04-25T05:25:04;91.57;;;7.30;;
11092;SDS011;5600;50.864;6.102;2023-04-25T05:28:21;107.80;;;8.03;;
11092;SDS011;5600;50.864;6.102;2023-04-25T05:31:37;101.23;;;8.07;;
11092;SDS011;5600;50.864;6.102;2023-04-25T05:34:43;100.27;;;8.10;;
11092;SDS011;5600;50.864;6.102;2023-04-25T05:37:53;102.37;;;8.53;;
11092;SDS011;5600;50.864;6.102;2023-04-25T05:41:05;127.67;;;9.00;;
11092;SDS011;5600;50.864;6.102;2023-04-25T05:44:15;128.60;;;9.63;;
11092;SDS011;5600;50.864;6.102;2023-04-25T05:47:22;111.57;;;8.60;;
11092;SDS011;5600;50.864;6.102;2023-04-25T05:50:40;91.73;;;7.90;;
11092;SDS011;5600;50.864;6.102;2023-04-25T05:53:57;95.27;;;8.43;;
11092;SDS011;5600;50.864;6.102;2023-04-25T05:56:58;105.03;;;8.40;;
11092;SDS011;5600;50.864;6.102;2023-04-25T05:59:59;98.20;;;7.60;;
11092;SDS011;5600;50.864;6.102;2023-04-25T06:03:13;78.20;;;7.07;;
11092;SDS011;5600;50.864;6.102;2023-04-25T06:06:15;69.87;;;6.90;;
11092;SDS011;5600;50.864;6.102;2023-04-25T06:09:16;91.03;;;7.50;;
11092;SDS011;5600;50.864;6.102;2023-04-25T06:12:16;71.43;;;6.83;;
11092;SDS011;5600;50.864;6.102;2023-04-25T06:15:17;62.27;;;6.17;;
11092;SDS011;5600;50.864;6.102;2023-04-25T06:18:18;65.40;;;6.17;;
11092;SDS011;5600;50.864;6.102;2023-04-25T06:21:19;72.87;;;6.73;;
11092;SDS011;5600;50.864;6.102;2023-04-25T06:24:24;76.87;;;6.80;;
11092;SDS011;5600;50.864;6.102;2023-04-25T06:27:26;82.57;;;6.87;;
11092;SDS011;5600;50.864;6.102;2023-04-25T06:30:27;87.77;;;7.20;;
11092;SDS011;5600;50.864;6.102;2023-04-25T06:33:34;93.10;;;7.53;;
11092;SDS011;5600;50.864;6.102;2023-04-25T06:36:37;77.17;;;6.37;;
11092;SDS011;5600;50.864;6.102;2023-04-25T06:39:42;68.47;;;5.73;;
11092;SDS011;5600;50.864;6.102;2023-04-25T06:42:44;81.87;;;6.83;;
11092;SDS011;5600;50.864;6.102;2023-04-25T06:46:11;79.80;;;6.73;;
11092;SDS011;5600;50.864;6.102;2023-04-25T06:49:17;122.37;;;8.10;;
11092;SDS011;5600;50.864;6.102;2023-04-25T06:52:19;70.57;;;6.03;;
11092;SDS011;5600;50.864;6.102;2023-04-25T06:55:21;62.13;;;6.07;;
11092;SDS011;5600;50.864;6.102;2023-04-25T06:58:42;70.83;;;6.13;;
11092;SDS011;5600;50.864;6.102;2023-04-25T07:01:47;92.73;;;7.27;;
11092;SDS011;5600;50.864;6.102;2023-04-25T07:04:54;83.87;;;6.67;;
11092;SDS011;5600;50.864;6.102;2023-04-25T07:07:59;92.00;;;6.77;;
11092;SDS011;5600;50.864;6.102;2023-04-25T07:11:01;109.80;;;8.00;;
11092;SDS011;5600;50.864;6.102;2023-04-25T07:14:02;92.43;;;6.77;;
11092;SDS011;5600;50.864;6.102;2023-04-25T07:17:03;73.57;;;5.97;;
11092;SDS011;5600;50.864;6.102;2023-04-25T07:20:07;93.33;;;6.87;;
11092;SDS011;5600;50.864;6.102;2023-04-25T07:23:09;73.47;;;6.00;;
11092;SDS011;5600;50.864;6.102;2023-04-25T07:26:10;101.23;;;7.20;;
11092;SDS011;5600;50.864;6.102;2023-04-25T07:29:20;55.60;;;4.73;;
11092;SDS011;5600;50.864;6.102;2023-04-25T07:32:21;77.73;;;5.93;;
11092;SDS011;5600;50.864;6.102;2023-04-25T07:35:22;89.60;;;6.43;;
11092;SDS011;5600;50.864;6.102;2023-04-25T07:38:23;76.47;;;5.60;;
11092;SDS011;5600;50.864;6.102;2023-04-25T07:41:24;71.53;;;6.17;;
11092;SDS011;5600;50.864;6.102;2023-04-25T07:44:25;57.47;;;5.87;;
11092;SDS011;5600;50.864;6.102;2023-04-25T07:47:26;64.57;;;5.47;;
11092;SDS011;5600;50.864;6.102;2023-04-25T07:50:27;66.27;;;5.43;;
11092;SDS011;5600;50.864;6.102;2023-04-25T07:53:28;70.37;;;5.63;;
11092;SDS011;5600;50.864;6.102;2023-04-25T07:56:33;73.53;;;5.63;;
11092;SDS011;5600;50.864;6.102;2023-04-25T07:59:35;75.60;;;5.33;;
11092;SDS011;5600;50.864;6.102;2023-04-25T08:02:37;65.40;;;5.10;;
11092;SDS011;5600;50.864;6.102;2023-04-25T08:05:38;60.83;;;4.87;;
11092;SDS011;5600;50.864;6.102;2023-04-25T08:08:40;66.53;;;5.23;;
11092;SDS011;5600;50.864;6.102;2023-04-25T08:11:43;63.60;;;4.53;;
11092;SDS011;5600;50.864;6.102;2023-04-25T08:14:47;60.30;;;4.60;;
11092;SDS011;5600;50.864;6.102;2023-04-25T08:17:48;64.77;;;4.67;;
11092;SDS011;5600;50.864;6.102;2023-04-25T08:20:50;82.63;;;5.60;;
11092;SDS011;5600;50.864;6.102;2023-04-25T08:23:51;98.23;;;6.03;;
11092;SDS011;5600;50.864;6.102;2023-04-25T08:27:02;87.20;;;5.83;;
11092;SDS011;5600;50.864;6.102;2023-04-25T08:30:05;117.43;;;7.57;;
11092;SDS011;5600;50.864;6.102;2023-04-25T08:33:09;79.10;;;5.40;;
11092;SDS011;5600;50.864;6.102;2023-04-25T08:36:29;63.00;;;4.80;;
11092;SDS011;5600;50.864;6.102;2023-04-25T08:39:30;79.33;;;5.73;;
11092;SDS011;5600;50.864;6.102;2023-04-25T08:42:48;94.17;;;6.10;;
11092;SDS011;5600;50.864;6.102;2023-04-25T08:45:50;72.77;;;5.43;;
11092;SDS011;5600;50.864;6.102;2023-04-25T08:49:17;94.47;;;5.93;;
11092;SDS011;5600;50.864;6.102;2023-04-25T08:52:21;82.03;;;6.20;;
11092;SDS011;5600;50.864;6.102;2023-04-25T08:55:24;70.33;;;5.07;;
11092;SDS011;5600;50.864;6.102;2023-04-25T08:58:32;64.17;;;4.80;;
11092;SDS011;5600;50.864;6.102;2023-04-25T09:01:34;66.63;;;4.70;;
11092;SDS011;5600;50.864;6.102;2023-04-25T09:04:35;62.30;;;4.63;;
11092;SDS011;5600;50.864;6.102;2023-04-25T09:07:36;98.33;;;6.23;;
11092;SDS011;5600;50.864;6.102;2023-04-25T09:10:39;138.90;;;8.57;;
11092;SDS011;5600;50.864;6.102;2023-04-25T09:13:40;78.47;;;5.37;;
11092;SDS011;5600;50.864;6.102;2023-04-25T09:16:59;66.73;;;4.87;;
11092;SDS011;5600;50.864;6.102;2023-04-25T09:20:11;85.63;;;5.63;;
11092;SDS011;5600;50.864;6.102;2023-04-25T09:23:14;102.00;;;6.47;;
11092;SDS011;5600;50.864;6.102;2023-04-25T09:26:16;91.77;;;6.17;;
11092;SDS011;5600;50.864;6.102;2023-04-25T09:29:24;74.83;;;5.57;;
11092;SDS011;5600;50.864;6.102;2023-04-25T09:32:33;74.93;;;5.50;;
11092;SDS011;5600;50.864;6.102;2023-04-25T09:35:35;84.00;;;6.17;;
11092;SDS011;5600;50.864;6.102;2023-04-25T09:38:43;82.17;;;6.13;;
11092;SDS011;5600;50.864;6.102;2023-04-25T09:41:56;69.57;;;5.90;;
11092;SDS011;5600;50.864;6.102;2023-04-25T09:44:57;79.50;;;6.03;;
11092;SDS011;5600;50.864;6.102;2023-04-25T09:48:03;67.53;;;5.33;;
11092;SDS011;5600;50.864;6.102;2023-04-25T09:51:07;101.87;;;6.73;;
11092;SDS011;5600;50.864;6.102;2023-04-25T09:54:14;100.77;;;6.57;;
11092;SDS011;5600;50.864;6.102;2023-04-25T10:00:24;81.23;;;5.60;;
11092;SDS011;5600;50.864;6.102;2023-04-25T10:03:25;74.00;;;5.67;;
11092;SDS011;5600;50.864;6.102;2023-04-25T10:06:42;80.53;;;6.07;;
11092;SDS011;5600;50.864;6.102;2023-04-25T10:09:44;59.67;;;5.07;;
11092;SDS011;5600;50.864;6.102;2023-04-25T10:12:50;78.60;;;6.33;;
11092;SDS011;5600;50.864;6.102;2023-04-25T10:15:53;54.47;;;5.07;;
11092;SDS011;5600;50.864;6.102;2023-04-25T10:18:54;66.77;;;5.27;;
11092;SDS011;5600;50.864;6.102;2023-04-25T10:21:58;67.27;;;4.87;;
11092;SDS011;5600;50.864;6.102;2023-04-25T10:25:01;75.40;;;5.50;;
11092;SDS011;5600;50.864;6.102;2023-04-25T10:28:06;56.43;;;4.70;;
11092;SDS011;5600;50.864;6.102;2023-04-25T10:31:09;82.43;;;5.87;;
11092;SDS011;5600;50.864;6.102;2023-04-25T10:34:10;88.73;;;6.33;;
11092;SDS011;5600;50.864;6.102;2023-04-25T10:37:11;73.53;;;5.63;;
11092;SDS011;5600;50.864;6.102;2023-04-25T10:40:12;81.73;;;5.80;;
11092;SDS011;5600;50.864;6.102;2023-04-25T10:46:41;69.67;;;5.43;;
11092;SDS011;5600;50.864;6.102;2023-04-25T10:49:44;66.63;;;5.20;;
11092;SDS011;5600;50.864;6.102;2023-04-25T10:52:44;73.97;;;5.37;;
11092;SDS011;5600;50.864;6.102;2023-04-25T10:55:49;62.97;;;4.83;;
11092;SDS011;5600;50.864;6.102;2023-04-25T10:58:50;65.63;;;5.40;;
11092;SDS011;5600;50.864;6.102;2023-04-25T11:01:51;78.73;;;5.93;;
11092;SDS011;5600;50.864;6.102;2023-04-25T11:04:54;94.53;;;6.50;;
11092;SDS011;5600;50.864;6.102;2023-04-25T11:07:55;82.43;;;5.97;;
11092;SDS011;5600;50.864;6.102;2023-04-25T11:10:57;77.00;;;6.07;;
11092;SDS011;5600;50.864;6.102;2023-04-25T11:13:59;85.70;;;6.40;;
11092;SDS011;5600;50.864;6.102;2023-04-25T11:17:01;111.93;;;7.23;;
11092;SDS011;5600;50.864;6.102;2023-04-25T11:20:02;72.37;;;5.53;;
11092;SDS011;5600;50.864;6.102;2023-04-25T11:23:07;65.17;;;5.00;;
11092;SDS011;5600;50.864;6.102;2023-04-25T11:26:08;71.23;;;5.13;;
11092;SDS011;5600;50.864;6.102;2023-04-25T11:29:09;75.30;;;5.90;;
11092;SDS011;5600;50.864;6.102;2023-04-25T11:32:10;97.63;;;6.37;;
11092;SDS011;5600;50.864;6.102;2023-04-25T11:35:11;104.63;;;6.60;;
11092;SDS011;5600;50.864;6.102;2023-04-25T11:38:12;89.37;;;6.20;;
11092;SDS011;5600;50.864;6.102;2023-04-25T11:41:13;93.63;;;6.03;;
11092;SDS011;5600;50.864;6.102;2023-04-25T11:44:17;98.50;;;6.27;;
11092;SDS011;5600;50.864;6.102;2023-04-25T11:47:18;95.33;;;6.00;;
11092;SDS011;5600;50.864;6.102;2023-04-25T11:50:19;84.60;;;6.03;;
11092;SDS011;5600;50.864;6.102;2023-04-25T11:53:20;106.97;;;6.67;;
11092;SDS011;5600;50.864;6.102;2023-04-25T11:56:21;120.80;;;7.33;;
11092;SDS011;5600;50.864;6.102;2023-04-25T11:59:23;95.50;;;6.17;;
11092;SDS011;5600;50.864;6.102;2023-04-25T12:02:25;87.80;;;5.93;;
11092;SDS011;5600;50.864;6.102;2023-04-25T12:05:27;111.53;;;6.70;;
11092;SDS011;5600;50.864;6.102;2023-04-25T12:08:30;168.27;;;9.70;;
11092;SDS011;5600;50.864;6.102;2023-04-25T12:11:31;85.63;;;6.17;;
11092;SDS011;5600;50.864;6.102;2023-04-25T12:14:33;97.70;;;6.23;;
11092;SDS011;5600;50.864;6.102;2023-04-25T12:17:35;69.03;;;4.83;;
11092;SDS011;5600;50.864;6.102;2023-04-25T12:20:37;66.47;;;4.73;;
11092;SDS011;5600;50.864;6.102;2023-04-25T12:23:38;56.93;;;4.43;;
11092;SDS011;5600;50.864;6.102;2023-04-25T12:26:50;66.23;;;4.67;;
11092;SDS011;5600;50.864;6.102;2023-04-25T12:29:55;55.07;;;3.93;;
11092;SDS011;5600;50.864;6.102;2023-04-25T12:32:57;96.90;;;6.00;;
11092;SDS011;5600;50.864;6.102;2023-04-25T12:35:58;84.93;;;6.07;;
11092;SDS011;5600;50.864;6.102;2023-04-25T12:39:01;174.03;;;9.57;;
11092;SDS011;5600;50.864;6.102;2023-04-25T12:42:04;73.27;;;5.30;;
11092;SDS011;5600;50.864;6.102;2023-04-25T12:45:05;83.43;;;5.87;;
11092;SDS011;5600;50.864;6.102;2023-04-25T12:48:06;68.00;;;4.90;;
11092;SDS011;5600;50.864;6.102;2023-04-25T12:51:07;83.67;;;5.70;;
11092;SDS011;5600;50.864;6.102;2023-04-25T12:54:08;91.40;;;6.17;;
11092;SDS011;5600;50.864;6.102;2023-04-25T12:57:08;53.80;;;4.47;;
11092;SDS011;5600;50.864;6.102;2023-04-25T13:00:09;60.43;;;4.87;;
11092;SDS011;5600;50.864;6.102;2023-04-25T13:03:10;77.57;;;5.80;;
11092;SDS011;5600;50.864;6.102;2023-04-25T13:06:12;72.07;;;5.23;;
11092;SDS011;5600;50.864;6.102;2023-04-25T13:09:13;73.83;;;5.17;;
11092;SDS011;5600;50.864;6.102;2023-04-25T13:12:15;94.30;;;6.27;;
11092;SDS011;5600;50.864;6.102;2023-04-25T13:15:16;112.77;;;6.90;;
11092;SDS011;5600;50.864;6.102;2023-04-25T13:18:16;78.17;;;5.80;;
11092;SDS011;5600;50.864;6.102;2023-04-25T13:21:17;102.17;;;6.83;;
11092;SDS011;5600;50.864;6.102;2023-04-25T13:24:18;98.53;;;6.40;;
11092;SDS011;5600;50.864;6.102;2023-04-25T13:27:18;73.30;;;5.43;;
11092;SDS011;5600;50.864;6.102;2023-04-25T13:30:20;81.87;;;5.53;;
11092;SDS011;5600;50.864;6.102;2023-04-25T13:33:21;71.43;;;5.00;;
11092;SDS011;5600;50.864;6.102;2023-04-25T13:36:22;87.63;;;5.87;;
11092;SDS011;5600;50.864;6.102;2023-04-25T13:39:23;95.77;;;6.30;;
11092;SDS011;5600;50.864;6.102;2023-04-25T13:42:24;64.67;;;4.67;;
11092;SDS011;5600;50.864;6.102;2023-04-25T13:45:25;78.17;;;4.97;;
11092;SDS011;5600;50.864;6.102;2023-04-25T13:48:26;93.93;;;6.00;;
11092;SDS011;5600;50.864;6.102;2023-04-25T13:51:27;79.60;;;5.40;;
11092;SDS011;5600;50.864;6.102;2023-04-25T13:54:28;90.10;;;5.47;;
11092;SDS011;5600;50.864;6.102;2023-04-25T13:57:28;86.53;;;5.90;;
11092;SDS011;5600;50.864;6.102;2023-04-25T14:00:33;84.57;;;5.53;;
11092;SDS011;5600;50.864;6.102;2023-04-25T14:03:38;75.00;;;5.10;;
11092;SDS011;5600;50.864;6.102;2023-04-25T14:06:39;101.93;;;6.10;;
11092;SDS011;5600;50.864;6.102;2023-04-25T14:09:39;57.23;;;4.50;;
11092;SDS011;5600;50.864;6.102;2023-04-25T14:12:40;61.50;;;4.53;;
11092;SDS011;5600;50.864;6.102;2023-04-25T14:15:41;88.83;;;5.73;;
11092;SDS011;5600;50.864;6.102;2023-04-25T14:18:42;58.60;;;4.60;;
11092;SDS011;5600;50.864;6.102;2023-04-25T14:21:43;74.10;;;5.47;;
11092;SDS011;5600;50.864;6.102;2023-04-25T14:24:44;88.33;;;6.13;;
11092;SDS011;5600;50.864;6.102;2023-04-25T14:27:44;65.77;;;5.13;;
11092;SDS011;5600;50.864;6.102;2023-04-25T14:30:49;95.40;;;6.40;;
11092;SDS011;5600;50.864;6.102;2023-04-25T14:33:50;64.03;;;4.60;;
11092;SDS011;5600;50.864;6.102;2023-04-25T14:36:51;81.73;;;6.03;;
11092;SDS011;5600;50.864;6.102;2023-04-25T14:39:52;65.10;;;4.90;;
11092;SDS011;5600;50.864;6.102;2023-04-25T14:42:53;100.20;;;6.43;;
11092;SDS011;5600;50.864;6.102;2023-04-25T14:45:53;82.17;;;5.77;;
11092;SDS011;5600;50.864;6.102;2023-04-25T14:48:55;66.67;;;5.07;;
11092;SDS011;5600;50.864;6.102;2023-04-25T14:51:56;74.67;;;5.33;;
11092;SDS011;5600;50.864;6.102;2023-04-25T14:54:56;72.63;;;5.30;;
11092;SDS011;5600;50.864;6.102;2023-04-25T14:57:57;73.00;;;5.23;;
11092;SDS011;5600;50.864;6.102;2023-04-25T15:00:58;85.53;;;5.80;;
11092;SDS011;5600;50.864;6.102;2023-04-25T15:03:59;70.63;;;4.57;;
11092;SDS011;5600;50.864;6.102;2023-04-25T15:07:01;54.47;;;3.80;;
11092;SDS011;5600;50.864;6.102;2023-04-25T15:10:02;63.43;;;4.37;;
11092;SDS011;5600;50.864;6.102;2023-04-25T15:13:03;78.03;;;5.10;;
11092;SDS011;5600;50.864;6.102;2023-04-25T15:16:04;102.13;;;6.43;;
11092;SDS011;5600;50.864;6.102;2023-04-25T15:19:06;97.43;;;6.10;;
11092;SDS011;5600;50.864;6.102;2023-04-25T15:22:07;86.13;;;5.83;;
11092;SDS011;5600;50.864;6.102;2023-04-25T15:25:08;95.87;;;6.07;;
11092;SDS011;5600;50.864;6.102;2023-04-25T15:28:10;117.87;;;7.27;;
11092;SDS011;5600;50.864;6.102;2023-04-25T15:31:10;120.37;;;7.30;;
11092;SDS011;5600;50.864;6.102;2023-04-25T15:34:11;89.53;;;5.73;;
11092;SDS011;5600;50.864;6.102;2023-04-25T15:37:12;117.93;;;7.07;;
11092;SDS011;5600;50.864;6.102;2023-04-25T15:40:13;112.00;;;6.83;;
11092;SDS011;5600;50.864;6.102;2023-04-25T15:43:15;86.03;;;5.37;;
11092;SDS011;5600;50.864;6.102;2023-04-25T15:46:16;78.87;;;5.20;;
11092;SDS011;5600;50.864;6.102;2023-04-25T15:49:17;78.93;;;5.07;;
11092;SDS011;5600;50.864;6.102;2023-04-25T15:52:20;121.87;;;7.23;;
11092;SDS011;5600;50.864;6.102;2023-04-25T15:55:21;77.63;;;4.77;;
11092;SDS011;5600;50.864;6.102;2023-04-25T15:58:22;93.17;;;5.50;;
11092;SDS011;5600;50.864;6.102;2023-04-25T16:01:23;122.93;;;6.80;;
11092;SDS011;5600;50.864;6.102;2023-04-25T16:04:25;94.27;;;5.70;;
11092;SDS011;5600;50.864;6.102;2023-04-25T16:07:29;90.37;;;6.33;;
11092;SDS011;5600;50.864;6.102;2023-04-25T16:10:31;71.67;;;4.33;;
11092;SDS011;5600;50.864;6.102;2023-04-25T16:13:32;97.50;;;5.93;;
11092;SDS011;5600;50.864;6.102;2023-04-25T16:16:34;73.30;;;4.60;;
11092;SDS011;5600;50.864;6.102;2023-04-25T16:19:35;80.40;;;4.80;;
11092;SDS011;5600;50.864;6.102;2023-04-25T16:22:37;73.20;;;4.40;;
11092;SDS011;5600;50.864;6.102;2023-04-25T16:25:39;101.03;;;6.00;;
11092;SDS011;5600;50.864;6.102;2023-04-25T16:28:42;53.87;;;3.50;;
11092;SDS011;5600;50.864;6.102;2023-04-25T16:31:42;42.03;;;3.07;;
11092;SDS011;5600;50.864;6.102;2023-04-25T16:34:43;62.50;;;4.37;;
11092;SDS011;5600;50.864;6.102;2023-04-25T16:37:44;66.60;;;4.50;;
11092;SDS011;5600;50.864;6.102;2023-04-25T16:40:45;58.77;;;3.93;;
11092;SDS011;5600;50.864;6.102;2023-04-25T16:43:46;50.37;;;3.40;;
11092;SDS011;5600;50.864;6.102;2023-04-25T16:46:49;77.77;;;4.83;;
11092;SDS011;5600;50.864;6.102;2023-04-25T16:49:50;54.07;;;3.97;;
11092;SDS011;5600;50.864;6.102;2023-04-25T16:52:52;87.67;;;5.43;;
11092;SDS011;5600;50.864;6.102;2023-04-25T16:55:53;49.83;;;3.47;;
11092;SDS011;5600;50.864;6.102;2023-04-25T16:58:54;50.43;;;3.63;;
11092;SDS011;5600;50.864;6.102;2023-04-25T17:01:55;68.27;;;4.43;;
11092;SDS011;5600;50.864;6.102;2023-04-25T17:04:56;39.50;;;3.13;;
11092;SDS011;5600;50.864;6.102;2023-04-25T17:07:57;54.63;;;3.87;;
11092;SDS011;5600;50.864;6.102;2023-04-25T17:10:58;66.27;;;4.27;;
11092;SDS011;5600;50.864;6.102;2023-04-25T17:13:59;75.27;;;4.77;;
11092;SDS011;5600;50.864;6.102;2023-04-25T17:17:00;48.10;;;3.33;;
11092;SDS011;5600;50.864;6.102;2023-04-25T17:20:02;59.70;;;4.10;;
11092;SDS011;5600;50.864;6.102;2023-04-25T17:23:05;52.57;;;4.27;;
11092;SDS011;5600;50.864;6.102;2023-04-25T17:26:06;41.27;;;3.20;;
11092;SDS011;5600;50.864;6.102;2023-04-25T17:29:06;52.00;;;4.13;;
11092;SDS011;5600;50.864;6.102;2023-04-25T17:32:07;40.87;;;3.23;;
11092;SDS011;5600;50.864;6.102;2023-04-25T17:35:08;52.57;;;3.87;;
11092;SDS011;5600;50.864;6.102;2023-04-25T17:38:09;72.87;;;5.00;;
11092;SDS011;5600;50.864;6.102;2023-04-25T17:41:10;67.90;;;4.37;;
11092;SDS011;5600;50.864;6.102;2023-04-25T17:44:12;56.27;;;4.03;;
11092;SDS011;5600;50.864;6.102;2023-04-25T17:47:13;59.40;;;4.47;;
11092;SDS011;5600;50.864;6.102;2023-04-25T17:50:13;47.13;;;3.47;;
11092;SDS011;5600;50.864;6.102;2023-04-25T17:53:15;54.90;;;4.03;;
11092;SDS011;5600;50.864;6.102;2023-04-25T17:56:16;59.60;;;4.43;;
11092;SDS011;5600;50.864;6.102;2023-04-25T17:59:18;78.63;;;5.03;;
11092;SDS011;5600;50.864;6.102;2023-04-25T18:02:19;58.37;;;4.13;;
11092;SDS011;5600;50.864;6.102;2023-04-25T18:05:20;60.33;;;4.27;;
11092;SDS011;5600;50.864;6.102;2023-04-25T18:08:21;51.33;;;3.80;;
11092;SDS011;5600;50.864;6.102;2023-04-25T18:11:22;71.00;;;5.10;;
11092;SDS011;5600;50.864;6.102;2023-04-25T18:14:23;55.50;;;4.13;;
11092;SDS011;5600;50.864;6.102;2023-04-25T18:17:24;59.63;;;4.20;;
11092;SDS011;5600;50.864;6.102;2023-04-25T18:20:25;51.47;;;4.13;;
11092;SDS011;5600;50.864;6.102;2023-04-25T18:23:27;70.60;;;4.60;;
11092;SDS011;5600;50.864;6.102;2023-04-25T18:26:28;86.13;;;5.13;;
11092;SDS011;5600;50.864;6.102;2023-04-25T18:29:29;73.40;;;4.93;;